createdAt,value
2023-03-24T00:01:08.607Z,51.80
2023-03-24T00:03:38.260Z,50.20
2023-03-24T00:06:08.948Z,52.90
2023-03-24T00:08:38.154Z,48.30
2023-03-24T00:11:08.576Z,48.00
2023-03-24T00:13:38.554Z,44.90
2023-03-24T00:16:17.184Z,50.70
2023-03-24T00:18:50.740Z,49.80
2023-03-24T00:21:21.971Z,50.90
2023-03-24T00:23:51.148Z,46.60
2023-03-24T00:26:19.628Z,46.00
2023-03-24T00:28:53.225Z,47.70
2023-03-24T00:31:25.161Z,50.40
2023-03-24T00:33:54.489Z,46.50
2023-03-24T00:36:25.043Z,49.80
2023-03-24T00:38:54.644Z,49.60
2023-03-24T00:41:28.215Z,50.10
2023-03-24T00:44:00.702Z,55.30
2023-03-24T00:46:30.266Z,47.90
2023-03-24T00:49:07.512Z,49.90
2023-03-24T00:51:41.843Z,51.60
2023-03-24T00:54:12.887Z,57.20
2023-03-24T00:56:43.994Z,58.40
2023-03-24T00:59:14.218Z,55.10
2023-03-24T01:01:43.922Z,61.00
2023-03-24T01:04:14.456Z,59.50
2023-03-24T01:06:45.192Z,57.60
2023-03-24T01:09:13.876Z,57.40
2023-03-24T01:11:45.636Z,60.30
2023-03-24T01:14:14.840Z,59.60
2023-03-24T01:16:43.678Z,62.30
2023-03-24T01:19:12.505Z,68.70
2023-03-24T01:21:42.570Z,62.40
2023-03-24T01:24:11.231Z,57.20
2023-03-24T01:26:41.425Z,62.40
2023-03-24T01:29:10.320Z,54.40
2023-03-24T01:31:39.440Z,60.90
2023-03-24T01:34:08.814Z,56.20
2023-03-24T01:39:08.042Z,52.70
2023-03-24T01:41:38.327Z,55.50
2023-03-24T01:44:25.870Z,55.40
2023-03-24T01:46:55.899Z,56.90
2023-03-24T01:49:26.760Z,54.30
2023-03-24T01:51:57.905Z,64.00
2023-03-24T01:54:34.858Z,59.40
2023-03-24T01:57:14.805Z,56.50
2023-03-24T01:59:47.335Z,49.60
2023-03-24T02:02:25.353Z,51.60
2023-03-24T02:05:02.625Z,51.30
2023-03-24T02:08:20.111Z,47.60
2023-03-24T02:10:50.535Z,46.20
2023-03-24T02:13:19.020Z,44.50
2023-03-24T02:16:03.294Z,46.30
2023-03-24T02:18:47.766Z,48.20
2023-03-24T02:21:38.422Z,46.90
2023-03-24T02:24:32.340Z,46.30
2023-03-24T02:27:32.933Z,46.00
2023-03-24T02:30:24.880Z,44.30
2023-03-24T02:33:14.361Z,42.10
2023-03-24T02:35:55.937Z,57.50
2023-03-24T02:38:27.990Z,47.40
2023-03-24T02:41:09.069Z,46.30
2023-03-24T02:43:57.416Z,51.70
2023-03-24T02:46:48.117Z,49.50
2023-03-24T02:49:39.331Z,44.30
2023-03-24T02:52:15.083Z,46.10
2023-03-24T02:54:52.473Z,44.90
2023-03-24T02:57:44.088Z,42.30
2023-03-24T03:00:47.253Z,50.70
2023-03-24T03:03:40.058Z,42.80
2023-03-24T03:06:18.289Z,47.70
2023-03-24T03:08:49.702Z,50.80
2023-03-24T03:11:19.097Z,40.60
2023-03-24T03:13:54.963Z,41.30
2023-03-24T03:16:34.864Z,43.80
2023-03-24T03:19:10.215Z,51.70
2023-03-24T03:21:43.183Z,56.50
2023-03-24T03:24:20.258Z,45.40
2023-03-24T03:27:00.484Z,42.20
2023-03-24T03:29:34.430Z,46.40
2023-03-24T03:32:12.996Z,42.80
2023-03-24T03:35:20.903Z,41.70
2023-03-24T03:38:20.104Z,41.10
2023-03-24T03:40:56.651Z,55.70
2023-03-24T03:43:28.635Z,42.80
2023-03-24T03:46:12.968Z,46.80
2023-03-24T03:48:42.799Z,48.20
2023-03-24T03:51:14.333Z,47.20
2023-03-24T03:54:13.775Z,51.10
2023-03-24T03:56:43.375Z,50.30
2023-03-24T03:59:25.898Z,45.00
2023-03-24T04:01:55.024Z,53.20
2023-03-24T04:04:38.332Z,48.00
2023-03-24T04:07:53.375Z,47.90
2023-03-24T04:11:06.803Z,46.90
2023-03-24T04:13:50.196Z,48.50
2023-03-24T04:16:56.755Z,48.10
2023-03-24T04:19:39.115Z,55.20
2023-03-24T04:22:24.392Z,51.70
2023-03-24T04:25:08.334Z,46.60
2023-03-24T04:27:48.399Z,54.00
2023-03-24T04:30:25.990Z,46.00
2023-03-24T04:33:07.682Z,44.00
2023-03-24T04:35:44.282Z,41.00
2023-03-24T04:38:38.637Z,45.00
2023-03-24T04:41:30.249Z,38.90
2023-03-24T04:44:08.570Z,41.30
2023-03-24T04:46:44.959Z,45.30
2023-03-24T04:49:19.875Z,42.50
2023-03-24T04:51:49.869Z,42.60
2023-03-24T04:54:30.136Z,39.10
2023-03-24T04:57:04.842Z,41.30
2023-03-24T04:59:49.826Z,45.20
2023-03-24T05:02:21.606Z,40.80
2023-03-24T05:05:08.619Z,36.60
2023-03-24T05:07:44.351Z,42.20
2023-03-24T05:10:15.300Z,31.60
2023-03-24T05:12:50.678Z,36.50
2023-03-24T05:15:37.858Z,39.70
2023-03-24T05:18:25.077Z,38.80
2023-03-24T05:20:54.777Z,39.60
2023-03-24T05:23:23.781Z,43.80
2023-03-24T05:25:54.530Z,33.00
2023-03-24T05:28:25.960Z,39.20
2023-03-24T05:30:55.834Z,41.30
2023-03-24T05:33:43.817Z,40.70
2023-03-24T05:36:14.889Z,37.60
2023-03-24T05:38:48.858Z,35.70
2023-03-24T05:41:17.663Z,37.30
2023-03-24T05:43:46.643Z,44.70
2023-03-24T05:48:47.177Z,37.30
2023-03-24T05:51:27.878Z,42.50
2023-03-24T05:54:06.511Z,36.60
2023-03-24T05:56:42.075Z,35.00
2023-03-24T05:59:17.483Z,33.50
2023-03-24T06:02:08.711Z,33.60
2023-03-24T06:04:49.466Z,33.10
2023-03-24T06:07:26.962Z,33.60
2023-03-24T06:10:03.241Z,30.00
2023-03-24T06:12:39.175Z,32.00
2023-03-24T06:15:09.117Z,34.80
2023-03-24T06:17:46.147Z,29.00
2023-03-24T06:20:24.669Z,33.20
2023-03-24T06:23:28.479Z,31.20
2023-03-24T06:26:11.901Z,32.10
2023-03-24T06:28:58.407Z,29.70
2023-03-24T06:31:33.037Z,30.20
2023-03-24T06:34:04.439Z,36.80
2023-03-24T06:36:35.226Z,31.90
2023-03-24T06:39:06.292Z,29.40
2023-03-24T06:41:35.048Z,32.30
2023-03-24T06:44:10.286Z,31.40
2023-03-24T06:46:40.966Z,34.20
2023-03-24T06:49:11.357Z,31.90
2023-03-24T06:51:40.057Z,26.40
2023-03-24T06:54:09.753Z,28.70
2023-03-24T06:56:38.365Z,30.20
2023-03-24T07:01:38.103Z,17.80
2023-03-24T07:04:17.282Z,20.10
2023-03-24T07:07:19.153Z,26.10
2023-03-24T07:09:51.015Z,34.00
2023-03-24T07:12:19.922Z,25.60
2023-03-24T07:14:50.527Z,23.10
2023-03-24T07:17:22.015Z,27.10
2023-03-24T07:20:11.558Z,29.60
2023-03-24T07:22:48.465Z,19.50
2023-03-24T07:25:41.065Z,17.20
2023-03-24T07:28:24.715Z,19.40
2023-03-24T07:30:56.182Z,17.00
2023-03-24T07:33:26.900Z,19.40
2023-03-24T07:35:57.663Z,14.50
2023-03-24T07:38:29.708Z,18.60
2023-03-24T07:41:02.481Z,25.70
2023-03-24T07:43:32.716Z,18.10
2023-03-24T07:46:23.231Z,17.30
2023-03-24T07:48:53.433Z,22.20
2023-03-24T07:51:22.668Z,22.70
2023-03-24T07:54:14.891Z,20.80
2023-03-24T07:56:48.514Z,20.30
2023-03-24T08:01:57.566Z,24.10
2023-03-24T08:04:38.793Z,30.20
2023-03-24T08:07:19.649Z,25.90
2023-03-24T08:09:48.645Z,24.80
2023-03-24T08:12:20.516Z,26.90
2023-03-24T08:14:49.527Z,28.20
2023-03-24T08:17:18.497Z,21.40
2023-03-24T08:20:00.085Z,20.50
2023-03-24T08:22:31.463Z,18.30
2023-03-24T08:25:00.994Z,21.40
2023-03-24T08:29:58.829Z,25.50
2023-03-24T08:32:27.374Z,21.50
2023-03-24T08:34:58.388Z,21.40
2023-03-24T08:37:26.961Z,27.80
2023-03-24T08:39:59.058Z,19.20
2023-03-24T08:42:27.766Z,20.30
2023-03-24T08:44:56.581Z,22.20
2023-03-24T08:47:44.300Z,17.40
2023-03-24T08:50:13.315Z,14.60
2023-03-24T08:52:42.320Z,20.30
2023-03-24T08:55:11.792Z,12.50
2023-03-24T08:57:44.483Z,15.50
2023-03-24T09:00:15.555Z,11.80
2023-03-24T09:02:54.359Z,24.80
2023-03-24T09:08:10.231Z,11.70
2023-03-24T09:10:39.937Z,8.50
2023-03-24T09:13:09.189Z,12.30
2023-03-24T09:15:38.115Z,23.20
2023-03-24T09:18:06.654Z,18.40
2023-03-24T09:20:36.329Z,16.40
2023-03-24T09:23:05.106Z,18.30
2023-03-24T09:28:18.767Z,13.80
2023-03-24T09:30:48.160Z,10.30
2023-03-24T09:33:19.015Z,13.10
2023-03-24T09:35:56.462Z,14.80
2023-03-24T09:38:26.609Z,12.60
2023-03-24T09:41:03.225Z,11.50
2023-03-24T09:43:40.360Z,11.60
2023-03-24T09:46:16.459Z,11.80
2023-03-24T09:48:52.951Z,11.10
2023-03-24T09:51:26.090Z,15.00
2023-03-24T09:54:13.456Z,12.50
2023-03-24T09:56:44.686Z,10.40
2023-03-24T09:59:35.104Z,13.00
2023-03-24T10:02:14.307Z,12.80
2023-03-24T10:04:44.192Z,11.30
2023-03-24T10:07:25.581Z,10.30
2023-03-24T10:09:59.139Z,12.00
2023-03-24T10:12:37.702Z,12.60
2023-03-24T10:15:24.297Z,13.30
2023-03-24T10:18:13.741Z,18.40
2023-03-24T10:21:07.495Z,14.50
2023-03-24T10:23:59.995Z,9.70
2023-03-24T10:26:32.473Z,17.30
2023-03-24T10:29:59.013Z,9.80
2023-03-24T10:32:43.343Z,16.50
2023-03-24T10:35:20.059Z,11.80
2023-03-24T10:37:49.136Z,11.30
2023-03-24T10:40:23.515Z,14.40
2023-03-24T10:43:06.297Z,13.20
2023-03-24T10:45:37.363Z,17.80
2023-03-24T10:48:06.294Z,15.80
2023-03-24T10:50:42.377Z,12.70
2023-03-24T10:53:21.000Z,11.60
2023-03-24T10:55:51.171Z,10.20
2023-03-24T10:58:36.003Z,12.80
2023-03-24T11:01:24.267Z,13.70
2023-03-24T11:04:00.938Z,13.10
2023-03-24T11:06:30.083Z,15.50
2023-03-24T11:09:41.154Z,11.00
2023-03-24T11:12:29.973Z,9.90
2023-03-24T11:15:17.617Z,8.90
2023-03-24T11:18:22.520Z,10.30
2023-03-24T11:20:57.520Z,12.80
2023-03-24T11:23:32.952Z,10.00
2023-03-24T11:26:23.564Z,11.00
2023-03-24T11:28:53.780Z,10.50
2023-03-24T11:31:30.744Z,8.00
2023-03-24T11:34:20.996Z,10.30
2023-03-24T11:36:54.142Z,16.20
2023-03-24T11:39:24.230Z,12.40
2023-03-24T11:42:04.171Z,10.90
2023-03-24T11:44:52.134Z,10.60
2023-03-24T11:50:11.224Z,19.00
2023-03-24T11:52:46.260Z,21.50
2023-03-24T11:55:42.598Z,12.60
2023-03-24T11:58:28.479Z,12.50
2023-03-24T12:01:02.172Z,13.20
2023-03-24T12:04:26.471Z,8.10
2023-03-24T12:07:32.289Z,8.60
2023-03-24T12:10:24.261Z,9.30
2023-03-24T12:13:18.984Z,10.30
2023-03-24T12:16:10.787Z,7.30
2023-03-24T12:19:19.015Z,12.50
2023-03-24T12:22:00.177Z,10.70
2023-03-24T12:25:08.334Z,8.20
2023-03-24T12:27:56.385Z,9.90
2023-03-24T12:30:37.506Z,8.00
2023-03-24T12:33:28.612Z,9.90
2023-03-24T12:36:12.936Z,7.30
2023-03-24T12:38:54.830Z,7.00
2023-03-24T12:41:36.258Z,15.00
2023-03-24T12:44:22.953Z,9.30
2023-03-24T12:47:07.815Z,11.70
2023-03-24T12:49:58.727Z,9.30
2023-03-24T12:53:06.813Z,11.80
2023-03-24T12:55:41.456Z,12.70
2023-03-24T12:58:12.189Z,11.40
2023-03-24T13:01:01.579Z,9.90
2023-03-24T13:03:47.150Z,10.00
2023-03-24T13:06:42.193Z,5.10
2023-03-24T13:09:19.949Z,8.90
2023-03-24T13:11:51.914Z,21.50
2023-03-24T13:14:24.267Z,7.60
2023-03-24T13:17:03.866Z,7.70
2023-03-24T13:19:32.714Z,13.40
2023-03-24T13:22:01.716Z,6.30
2023-03-24T13:24:33.630Z,9.80
2023-03-24T13:27:44.038Z,11.30
2023-03-24T13:30:31.658Z,11.30
2023-03-24T13:33:16.322Z,8.30
2023-03-24T13:35:58.440Z,8.20
2023-03-24T13:38:29.669Z,11.50
2023-03-24T13:40:58.879Z,18.00
2023-03-24T13:43:31.647Z,9.90
2023-03-24T13:46:14.007Z,13.10
2023-03-24T13:48:51.300Z,17.20
2023-03-24T13:51:27.842Z,11.10
2023-03-24T13:54:26.607Z,8.90
2023-03-24T13:57:17.511Z,12.10
2023-03-24T14:00:17.526Z,15.60
2023-03-24T14:02:52.917Z,17.00
2023-03-24T14:05:58.994Z,16.40
2023-03-24T14:08:53.850Z,14.00
2023-03-24T14:11:35.021Z,13.20
2023-03-24T14:14:14.035Z,11.70
2023-03-24T14:16:47.655Z,14.20
2023-03-24T14:19:17.978Z,12.80
2023-03-24T14:21:53.106Z,12.30
2023-03-24T14:24:27.480Z,14.00
2023-03-24T14:26:56.676Z,14.20
2023-03-24T14:29:48.758Z,17.40
2023-03-24T14:32:21.600Z,17.30
2023-03-24T14:34:59.032Z,16.00
2023-03-24T14:37:28.506Z,17.40
2023-03-24T14:39:57.724Z,14.80
2023-03-24T14:42:32.760Z,15.50
2023-03-24T14:45:05.341Z,11.60
2023-03-24T14:47:35.078Z,13.80
2023-03-24T14:50:21.545Z,12.10
2023-03-24T14:52:59.364Z,15.30
2023-03-24T14:55:28.047Z,10.40
2023-03-24T14:58:00.755Z,15.50
2023-03-24T15:01:08.087Z,14.80
2023-03-24T15:04:07.672Z,17.20
2023-03-24T15:06:47.932Z,15.90
2023-03-24T15:09:18.324Z,18.50
2023-03-24T15:11:47.606Z,15.20
2023-03-24T15:14:24.002Z,14.30
2023-03-24T15:17:24.715Z,12.00
2023-03-24T15:19:55.436Z,12.30
2023-03-24T15:22:25.668Z,15.40
2023-03-24T15:24:54.749Z,13.00
2023-03-24T15:27:34.748Z,12.30
2023-03-24T15:30:06.605Z,12.10
2023-03-24T15:32:39.665Z,14.20
2023-03-24T15:35:09.102Z,14.70
2023-03-24T15:37:43.381Z,15.20
2023-03-24T15:40:27.308Z,16.20
2023-03-24T15:43:01.533Z,15.40
2023-03-24T15:45:33.821Z,14.90
2023-03-24T15:48:08.720Z,12.40
2023-03-24T15:50:41.990Z,14.20
2023-03-24T15:53:20.878Z,14.50
2023-03-24T15:56:07.382Z,13.10
2023-03-24T15:58:56.468Z,12.00
2023-03-24T16:01:40.296Z,12.00
2023-03-24T16:04:14.537Z,16.70
2023-03-24T16:06:48.601Z,20.30
2023-03-24T16:09:22.248Z,16.00
2023-03-24T16:11:51.744Z,15.30
2023-03-24T16:16:57.387Z,13.90
2023-03-24T16:19:26.559Z,11.70
2023-03-24T16:21:55.629Z,10.50
2023-03-24T16:24:24.899Z,10.90
2023-03-24T16:26:53.745Z,11.70
2023-03-24T16:29:26.797Z,12.80
2023-03-24T16:31:57.157Z,12.40
2023-03-24T16:34:26.655Z,10.80
2023-03-24T16:36:58.415Z,10.30
2023-03-24T16:39:29.320Z,12.20
2023-03-24T16:42:01.965Z,10.20
